Data Viewer
| City | State | Eastern Time | Source | Temp | DewPt | RH | BP | 5 Min Precip | Wind Speed | Wind Dir | 5 Min Wind Max | 5 Min Wind Max Dir |
|---|---|---|---|---|---|---|---|---|---|---|---|---|
| Fort Dix | NJ | 2026-05-04 20:10 | USFS | 64 | 44 | 49 | 0.00 | 2 | S | 12 | S | |
| Fort Dix | NJ | 2026-05-05 12:00 | USFS | 81 | 50 | 34 | 0.00 | 4 | SW | 14 | WSW | |
| Fort Dix | NJ | 2026-05-05 12:30 | USFS | 82 | 48 | 30 | 0.00 | 5 | WNW | 10 | S | |
| Fort Dix | NJ | 2026-05-05 12:25 | USFS | 82 | 48 | 31 | 0.00 | 2 | W | 10 | SW | |
| Fort Dix | NJ | 2026-05-05 12:20 | USFS | 82 | 49 | 32 | 0.00 | 2 | WSW | 13 | SSW | |
| Fort Dix | NJ | 2026-05-05 12:15 | USFS | 82 | 49 | 33 | 0.00 | 2 | SSW | 12 | SW | |
| Fort Dix | NJ | 2026-05-05 12:10 | USFS | 81 | 50 | 34 | 0.00 | 1 | S | 8 | SSW | |
| Fort Dix | NJ | 2026-05-05 12:05 | USFS | 81 | 50 | 33 | 0.00 | 2 | SSW | 12 | SSW | |
| Fort Dix | NJ | 2026-05-05 11:55 | USFS | 80 | 49 | 34 | 0.00 | 6 | SSW | 12 | SW | |
| Fort Dix | NJ | 2026-05-05 12:40 | USFS | 83 | 49 | 30 | 0.00 | 7 | SW | 14 | SSW | |
| Fort Dix | NJ | 2026-05-05 11:50 | USFS | 81 | 49 | 33 | 0.00 | 2 | WSW | 13 | SSW | |
| Fort Dix | NJ | 2026-05-05 11:45 | USFS | 80 | 51 | 36 | 0.00 | 3 | S | 9 | SW | |
| Fort Dix | NJ | 2026-05-05 11:40 | USFS | 79 | 49 | 35 | 0.00 | 5 | SW | 13 | SSW | |
| Fort Dix | NJ | 2026-05-05 11:35 | USFS | 79 | 49 | 36 | 0.00 | 2 | WSW | 12 | SW | |
| Fort Dix | NJ | 2026-05-05 11:30 | USFS | 78 | 49 | 37 | 0.00 | 7 | SW | 11 | SSW | |
| Fort Dix | NJ | 2026-05-05 11:25 | USFS | 79 | 50 | 36 | 0.00 | 12 | S | 14 | S | |
| Fort Dix | NJ | 2026-05-05 12:35 | USFS | 82 | 48 | 31 | 0.00 | 11 | WSW | 15 | SSW | |
| Fort Dix | NJ | 2026-05-05 12:45 | USFS | 83 | 50 | 32 | 0.00 | 4 | SSE | 13 | SSW | |
| Fort Dix | NJ | 2026-05-05 11:15 | USFS | 78 | 49 | 37 | 0.00 | 2 | SSW | 13 | SSW | |
| Fort Dix | NJ | 2026-05-05 13:30 | USFS | 84 | 49 | 29 | 0.00 | 6 | SW | 15 | SSW | |
| Fort Dix | NJ | 2026-05-05 14:00 | USFS | 83 | 46 | 27 | 0.00 | 10 | SSW | 21 | W | |
| Fort Dix | NJ | 2026-05-05 13:55 | USFS | 84 | 46 | 27 | 0.00 | 1 | SW | 19 | WSW | |
| Fort Dix | NJ | 2026-05-05 13:50 | USFS | 84 | 45 | 25 | 0.00 | 9 | SSW | 17 | S | |
| Fort Dix | NJ | 2026-05-05 13:45 | USFS | 83 | 46 | 28 | 0.00 | 9 | SSW | 23 | WSW | |
| Fort Dix | NJ | 2026-05-05 13:40 | USFS | 84 | 46 | 26 | 0.00 | 5 | WSW | 20 | SSW | |
| Fort Dix | NJ | 2026-05-05 13:35 | USFS | 84 | 47 | 28 | 0.00 | 13 | WSW | 16 | SSW | |
| Fort Dix | NJ | 2026-05-05 13:25 | USFS | 84 | 49 | 29 | 0.00 | 5 | WSW | 16 | SSW | |
| Fort Dix | NJ | 2026-05-05 12:50 | USFS | 82 | 49 | 31 | 0.00 | 5 | WSW | 11 | S | |
| Fort Dix | NJ | 2026-05-05 13:20 | USFS | 84 | 48 | 29 | 0.00 | 13 | SW | 16 | SSW | |
| Fort Dix | NJ | 2026-05-05 13:15 | USFS | 83 | 49 | 30 | 0.00 | 9 | SSW | 16 | SSW | |
| Fort Dix | NJ | 2026-05-05 13:10 | USFS | 84 | 49 | 30 | 0.00 | 2 | S | 14 | SW | |
| Fort Dix | NJ | 2026-05-05 13:05 | USFS | 83 | 49 | 30 | 0.00 | 1 | WSW | 13 | SW | |
| Fort Dix | NJ | 2026-05-05 13:00 | USFS | 84 | 48 | 29 | 0.00 | 2 | S | 12 | SW | |
| Fort Dix | NJ | 2026-05-05 12:55 | USFS | 83 | 49 | 31 | 0.00 | 5 | S | 13 | W | |
| Fort Dix | NJ | 2026-05-05 11:20 | USFS | 78 | 50 | 37 | 0.00 | 6 | WSW | 11 | S | |
| Fort Dix | NJ | 2026-05-05 11:10 | USFS | 78 | 50 | 38 | 0.00 | 9 | SSW | 10 | SW | |
| Fort Dix | NJ | 2026-05-05 14:10 | USFS | 83 | 46 | 28 | 0.00 | 9 | SW | 22 | W | |
| Fort Dix | NJ | 2026-05-05 09:00 | USFS | 69 | 51 | 53 | 0.00 | 5 | WSW | 15 | WSW | |
| Fort Dix | NJ | 2026-05-05 09:30 | USFS | 71 | 51 | 49 | 0.00 | 2 | WSW | 11 | SW | |
| Fort Dix | NJ | 2026-05-05 09:25 | USFS | 71 | 50 | 48 | 0.00 | 3 | W | 12 | SSW | |
| Fort Dix | NJ | 2026-05-05 09:20 | USFS | 71 | 51 | 51 | 0.00 | 1 | S | 9 | SW | |
| Fort Dix | NJ | 2026-05-05 09:15 | USFS | 71 | 51 | 50 | 0.00 | 7 | SW | 9 | SW | |
| Fort Dix | NJ | 2026-05-05 09:10 | USFS | 69 | 51 | 52 | 0.00 | 4 | SSW | 13 | SW | |
| Fort Dix | NJ | 2026-05-05 09:05 | USFS | 70 | 51 | 52 | 0.00 | 1 | SE | 10 | S | |
| Fort Dix | NJ | 2026-05-05 08:55 | USFS | 69 | 51 | 54 | 0.00 | 3 | WSW | 12 | SW | |
| Fort Dix | NJ | 2026-05-05 09:40 | USFS | 72 | 51 | 47 | 0.00 | 1 | SSW | 10 | W | |
| Fort Dix | NJ | 2026-05-05 08:50 | USFS | 68 | 51 | 55 | 0.00 | 1 | S | 11 | SW | |
| Fort Dix | NJ | 2026-05-05 08:45 | USFS | 68 | 51 | 55 | 0.00 | 3 | SW | 12 | SW | |
| Fort Dix | NJ | 2026-05-05 08:40 | USFS | 67 | 51 | 57 | 0.00 | 9 | SW | 13 | SSW | |
| Fort Dix | NJ | 2026-05-05 08:35 | USFS | 67 | 52 | 57 | 0.00 | 3 | S | 14 | WSW | |
| Fort Dix | NJ | 2026-05-05 08:30 | USFS | 67 | 51 | 58 | 0.00 | 6 | SW | 12 | WSW | |
| Fort Dix | NJ | 2026-05-05 08:25 | USFS | 67 | 51 | 58 | 0.00 | 3 | W | 14 | SSW | |
| Fort Dix | NJ | 2026-05-05 09:35 | USFS | 72 | 51 | 47 | 0.00 | 2 | SSE | 12 | SW | |
| Fort Dix | NJ | 2026-05-05 09:45 | USFS | 73 | 51 | 46 | 0.00 | 0 | SSE | 8 | WSW | |
| Fort Dix | NJ | 2026-05-05 11:05 | USFS | 76 | 50 | 40 | 0.00 | 5 | WSW | 12 | WSW | |
| Fort Dix | NJ | 2026-05-05 10:30 | USFS | 76 | 51 | 42 | 0.00 | 1 | SE | 8 | SW | |
| Fort Dix | NJ | 2026-05-05 11:00 | USFS | 77 | 49 | 37 | 0.00 | 4 | SW | 9 | WSW | |
| Fort Dix | NJ | 2026-05-05 10:55 | USFS | 77 | 50 | 39 | 0.00 | 6 | SSW | 13 | S | |
| Fort Dix | NJ | 2026-05-05 10:50 | USFS | 76 | 49 | 40 | 0.00 | 7 | S | 13 | SSW | |
| Fort Dix | NJ | 2026-05-05 10:45 | USFS | 75 | 49 | 40 | 0.00 | 5 | SSW | 13 | SW | |
| Fort Dix | NJ | 2026-05-05 10:40 | USFS | 77 | 50 | 39 | 0.00 | 2 | SW | 9 | SSW | |
| Fort Dix | NJ | 2026-05-05 10:35 | USFS | 76 | 50 | 40 | 0.00 | 5 | SSW | 11 | SSW | |
| Fort Dix | NJ | 2026-05-05 10:25 | USFS | 75 | 50 | 42 | 0.00 | 2 | WSW | 11 | SSW | |
| Fort Dix | NJ | 2026-05-05 09:50 | USFS | 73 | 50 | 45 | 0.00 | 4 | S | 8 | SSW | |
| Fort Dix | NJ | 2026-05-05 10:20 | USFS | 75 | 50 | 41 | 0.00 | 9 | SSW | 9 | SSW | |
| Fort Dix | NJ | 2026-05-05 10:15 | USFS | 74 | 50 | 43 | 0.00 | 1 | SW | 10 | S | |
| Fort Dix | NJ | 2026-05-05 10:10 | USFS | 74 | 51 | 44 | 0.00 | 5 | SSW | 11 | SSW | |
| Fort Dix | NJ | 2026-05-05 10:05 | USFS | 75 | 52 | 45 | 0.00 | 1 | SW | 6 | S | |
| Fort Dix | NJ | 2026-05-05 10:00 | USFS | 74 | 50 | 43 | 0.00 | 1 | SE | 10 | WNW | |
| Fort Dix | NJ | 2026-05-05 09:55 | USFS | 74 | 51 | 45 | 0.00 | 2 | WSW | 11 | WSW | |
| Fort Dix | NJ | 2026-05-05 14:05 | USFS | 84 | 47 | 27 | 0.00 | 7 | SW | 16 | SSW | |
| Fort Dix | NJ | 2026-05-05 14:15 | USFS | 84 | 47 | 28 | 0.00 | 5 | SSW | 19 | SW | |
| Fort Dix | NJ | 2026-05-05 08:15 | USFS | 66 | 52 | 61 | 0.00 | 2 | SSW | 12 | W | |
| Fort Dix | NJ | 2026-05-05 18:05 | USFS | 79 | 50 | 36 | 0.00 | 7 | SSW | 19 | SSW | |
| Fort Dix | NJ | 2026-05-05 18:35 | USFS | 77 | 51 | 40 | 0.00 | 9 | SE | 20 | S | |
| Fort Dix | NJ | 2026-05-05 18:30 | USFS | 78 | 52 | 40 | 0.00 | 3 | SW | 11 | S | |
| Fort Dix | NJ | 2026-05-05 18:25 | USFS | 79 | 51 | 38 | 0.00 | 2 | S | 14 | S | |
| Fort Dix | NJ | 2026-05-05 18:20 | USFS | 79 | 51 | 37 | 0.00 | 6 | SSE | 18 | S | |
| Fort Dix | NJ | 2026-05-05 18:15 | USFS | 79 | 51 | 37 | 0.00 | 1 | W | 14 | SSW | |
| Fort Dix | NJ | 2026-05-05 18:10 | USFS | 79 | 50 | 37 | 0.00 | 4 | SSW | 20 | S | |
| Fort Dix | NJ | 2026-05-05 18:00 | USFS | 80 | 50 | 36 | 0.00 | 3 | SW | 18 | S | |
| Fort Dix | NJ | 2026-05-05 18:45 | USFS | 77 | 51 | 41 | 0.00 | 2 | SSW | 21 | S | |
| Fort Dix | NJ | 2026-05-05 17:55 | USFS | 80 | 50 | 35 | 0.00 | 6 | SSW | 15 | SSW | |
| Fort Dix | NJ | 2026-05-05 17:50 | USFS | 80 | 51 | 36 | 0.00 | 3 | SSW | 12 | S | |
| Fort Dix | NJ | 2026-05-05 17:45 | USFS | 80 | 50 | 35 | 0.00 | 7 | SSE | 16 | SSE | |
| Fort Dix | NJ | 2026-05-05 17:40 | USFS | 80 | 50 | 35 | 0.00 | 5 | SW | 20 | S | |
| Fort Dix | NJ | 2026-05-05 17:35 | USFS | 82 | 45 | 27 | 0.00 | 10 | S | 14 | SE | |
| Fort Dix | NJ | 2026-05-05 17:30 | USFS | 83 | 44 | 26 | 0.00 | 4 | SW | 16 | SW | |
| Fort Dix | NJ | 2026-05-05 18:40 | USFS | 77 | 51 | 41 | 0.00 | 12 | SSW | 13 | SSE | |
| Fort Dix | NJ | 2026-05-05 18:50 | USFS | 76 | 52 | 42 | 0.00 | 7 | SSW | 15 | SSE | |
| Fort Dix | NJ | 2026-05-05 17:20 | USFS | 82 | 50 | 33 | 0.00 | 15 | SSW | 19 | SSW | |
| Fort Dix | NJ | 2026-05-05 19:35 | USFS | 73 | 51 | 48 | 0.00 | 6 | SSW | 18 | SSE | |
| Fort Dix | NJ | 2026-05-05 20:05 | USFS | 71 | 51 | 50 | 0.00 | 9 | SSE | 19 | S | |
| Fort Dix | NJ | 2026-05-05 20:00 | USFS | 71 | 51 | 50 | 0.00 | 8 | SSW | 21 | SSW | |
| Fort Dix | NJ | 2026-05-05 19:55 | USFS | 71 | 52 | 50 | 0.00 | 12 | SSW | 16 | S | |
| Fort Dix | NJ | 2026-05-05 19:50 | USFS | 71 | 52 | 50 | 0.00 | 7 | WSW | 16 | SSW | |
| Fort Dix | NJ | 2026-05-05 19:45 | USFS | 72 | 52 | 49 | 0.00 | 1 | SSE | 13 | S | |
| Fort Dix | NJ | 2026-05-05 19:40 | USFS | 72 | 51 | 48 | 0.00 | 13 | S | 18 | SSW | |
| Fort Dix | NJ | 2026-05-05 19:30 | USFS | 73 | 51 | 47 | 0.00 | 9 | SW | 18 | SSW | |
| Fort Dix | NJ | 2026-05-05 18:55 | USFS | 76 | 52 | 43 | 0.00 | 4 | S | 14 | SSW | |
| Fort Dix | NJ | 2026-05-05 19:25 | USFS | 73 | 52 | 47 | 0.00 | 7 | SSW | 18 | SSE | |
| Fort Dix | NJ | 2026-05-05 19:20 | USFS | 73 | 52 | 46 | 0.00 | 4 | S | 16 | S | |
| Fort Dix | NJ | 2026-05-05 19:15 | USFS | 74 | 51 | 46 | 0.00 | 5 | SSE | 16 | SSW | |
| Fort Dix | NJ | 2026-05-05 19:10 | USFS | 74 | 52 | 45 | 0.00 | 0 | SW | 16 | SSE | |
| Fort Dix | NJ | 2026-05-05 19:05 | USFS | 75 | 52 | 45 | 0.00 | 5 | SW | 15 | S | |
| Fort Dix | NJ | 2026-05-05 19:00 | USFS | 75 | 52 | 44 | 0.00 | 5 | S | 20 | S | |
| Fort Dix | NJ | 2026-05-05 17:25 | USFS | 82 | 48 | 30 | 0.00 | 1 | NNE | 16 | SW | |
| Fort Dix | NJ | 2026-05-05 17:15 | USFS | 81 | 50 | 34 | 0.00 | 4 | SSE | 19 | SSW | |
| Fort Dix | NJ | 2026-05-05 14:20 | USFS | 84 | 44 | 25 | 0.00 | 10 | SSW | 24 | S | |
| Fort Dix | NJ | 2026-05-05 15:00 | USFS | 84 | 46 | 26 | 0.00 | 3 | SW | 31 | WSW | |
| Fort Dix | NJ | 2026-05-05 15:30 | USFS | 84 | 44 | 24 | 0.00 | 1 | SSW | 22 | SSW | |
| Fort Dix | NJ | 2026-05-05 15:25 | USFS | 85 | 45 | 24 | 0.00 | 8 | SSW | 22 | S | |
| Fort Dix | NJ | 2026-05-05 15:20 | USFS | 85 | 45 | 25 | 0.00 | 17 | S | 21 | S | |
| Fort Dix | NJ | 2026-05-05 15:15 | USFS | 84 | 45 | 25 | 0.00 | 11 | SSW | 20 | SSW | |
| Fort Dix | NJ | 2026-05-05 15:10 | USFS | 84 | 43 | 24 | 0.00 | 7 | S | 27 | SW | |
| Fort Dix | NJ | 2026-05-05 15:05 | USFS | 85 | 46 | 25 | 0.00 | 11 | SW | 21 | S | |
| Fort Dix | NJ | 2026-05-05 14:55 | USFS | 84 | 45 | 25 | 0.00 | 9 | SSW | 25 | SSW | |
| Fort Dix | NJ | 2026-05-05 15:40 | USFS | 84 | 44 | 25 | 0.00 | 2 | SSE | 24 | SSW | |
| Fort Dix | NJ | 2026-05-05 14:50 | USFS | 85 | 45 | 25 | 0.00 | 6 | WSW | 17 | SW | |
| Fort Dix | NJ | 2026-05-05 14:45 | USFS | 84 | 44 | 25 | 0.00 | 2 | W | 19 | WSW | |
| Fort Dix | NJ | 2026-05-05 14:40 | USFS | 85 | 44 | 24 | 0.00 | 12 | SW | 22 | SSW | |
| Fort Dix | NJ | 2026-05-05 14:35 | USFS | 84 | 44 | 24 | 0.00 | 11 | SSW | 28 | WSW | |
| Fort Dix | NJ | 2026-05-05 14:30 | USFS | 85 | 46 | 26 | 0.00 | 2 | SSW | 15 | SW | |
| Fort Dix | NJ | 2026-05-05 14:25 | USFS | 83 | 45 | 26 | 0.00 | 10 | SSW | 23 | SW | |
| Fort Dix | NJ | 2026-05-05 15:35 | USFS | 84 | 45 | 25 | 0.00 | 13 | S | 22 | SSW | |
| Fort Dix | NJ | 2026-05-05 15:45 | USFS | 84 | 43 | 23 | 0.00 | 5 | SW | 23 | SW | |
| Fort Dix | NJ | 2026-05-05 17:10 | USFS | 82 | 50 | 33 | 0.00 | 4 | S | 12 | SSE | |
| Fort Dix | NJ | 2026-05-05 16:35 | USFS | 84 | 43 | 24 | 0.00 | 2 | SW | 19 | W | |
| Fort Dix | NJ | 2026-05-05 17:05 | USFS | 83 | 48 | 30 | 0.00 | 8 | SSW | 23 | SW | |
| Fort Dix | NJ | 2026-05-05 17:00 | USFS | 83 | 43 | 25 | 0.00 | 4 | WSW | 19 | SW | |
| Fort Dix | NJ | 2026-05-05 16:55 | USFS | 83 | 43 | 25 | 0.00 | 9 | SW | 17 | SSW | |
| Fort Dix | NJ | 2026-05-05 16:50 | USFS | 84 | 45 | 25 | 0.00 | 2 | WSW | 21 | WSW | |
| Fort Dix | NJ | 2026-05-05 16:45 | USFS | 84 | 43 | 24 | 0.00 | 16 | SSW | 25 | S | |
| Fort Dix | NJ | 2026-05-05 16:40 | USFS | 84 | 44 | 25 | 0.00 | 4 | S | 20 | SW | |
| Fort Dix | NJ | 2026-05-05 16:30 | USFS | 83 | 43 | 25 | 0.00 | 4 | WSW | 22 | SSW | |
| Fort Dix | NJ | 2026-05-05 15:50 | USFS | 84 | 43 | 23 | 0.00 | 8 | SSW | 21 | S | |
| Fort Dix | NJ | 2026-05-05 16:25 | USFS | 84 | 44 | 24 | 0.00 | 4 | SW | 23 | SW | |
| Fort Dix | NJ | 2026-05-05 16:20 | USFS | 84 | 44 | 25 | 0.00 | 3 | SSE | 21 | SSW | |
| Fort Dix | NJ | 2026-05-05 16:15 | USFS | 84 | 43 | 24 | 0.00 | 3 | SW | 28 | SSW | |
| Fort Dix | NJ | 2026-05-05 16:10 | USFS | 84 | 43 | 24 | 0.00 | 12 | SW | 24 | SSW | |
| Fort Dix | NJ | 2026-05-05 16:05 | USFS | 84 | 42 | 23 | 0.00 | 9 | S | 24 | SSW | |
| Fort Dix | NJ | 2026-05-05 16:00 | USFS | 84 | 43 | 24 | 0.00 | 16 | SSW | 30 | S | |
| Fort Dix | NJ | 2026-05-05 15:55 | USFS | 84 | 43 | 24 | 0.00 | 6 | S | 22 | S | |
| Fort Dix | NJ | 2026-05-05 08:20 | USFS | 66 | 52 | 60 | 0.00 | 5 | S | 13 | WSW | |
| Fort Dix | NJ | 2026-05-05 08:10 | USFS | 66 | 52 | 61 | 0.00 | 7 | SW | 11 | SSW | |
| Fort Dix | NJ | 2026-05-04 20:15 | USFS | 64 | 44 | 49 | 0.00 | 2 | S | 11 | S | |
| Fort Dix | NJ | 2026-05-04 23:55 | USFS | 59 | 48 | 65 | 0.00 | 7 | S | 12 | S | |
| Fort Dix | NJ | 2026-05-05 00:25 | USFS | 59 | 49 | 69 | 0.00 | 3 | SW | 11 | S | |
| Fort Dix | NJ | 2026-05-05 00:20 | USFS | 59 | 49 | 69 | 0.00 | 6 | SSW | 10 | S | |
| Fort Dix | NJ | 2026-05-05 00:15 | USFS | 59 | 48 | 68 | 0.00 | 2 | SSE | 11 | S | |
| Fort Dix | NJ | 2026-05-05 00:10 | USFS | 59 | 48 | 67 | 0.00 | 1 | SSE | 10 | SSW | |
| Fort Dix | NJ | 2026-05-05 00:05 | USFS | 59 | 48 | 67 | 0.00 | 5 | S | 8 | SW | |
| Fort Dix | NJ | 2026-05-05 00:00 | USFS | 59 | 48 | 66 | 0.00 | 4 | SW | 9 | S | |
| Fort Dix | NJ | 2026-05-04 23:50 | USFS | 59 | 48 | 65 | 0.00 | 5 | S | 11 | S | |
| Fort Dix | NJ | 2026-05-05 00:35 | USFS | 59 | 49 | 70 | 0.00 | 5 | SW | 11 | S | |
| Fort Dix | NJ | 2026-05-04 23:45 | USFS | 60 | 47 | 64 | 0.00 | 1 | S | 9 | SSW | |
| Fort Dix | NJ | 2026-05-04 23:40 | USFS | 60 | 47 | 64 | 0.00 | 3 | SSE | 11 | S | |
| Fort Dix | NJ | 2026-05-04 23:35 | USFS | 60 | 47 | 63 | 0.00 | 6 | S | 7 | SSW | |
| Fort Dix | NJ | 2026-05-04 23:30 | USFS | 60 | 47 | 63 | 0.00 | 2 | SSE | 10 | SSW | |
| Fort Dix | NJ | 2026-05-04 23:25 | USFS | 60 | 47 | 63 | 0.00 | 2 | S | 9 | SSW | |
| Fort Dix | NJ | 2026-05-04 23:20 | USFS | 60 | 47 | 63 | 0.00 | 3 | S | 12 | SSW | |
| Fort Dix | NJ | 2026-05-05 00:30 | USFS | 59 | 49 | 69 | 0.00 | 6 | S | 10 | SSW | |
| Fort Dix | NJ | 2026-05-05 00:40 | USFS | 59 | 49 | 70 | 0.00 | 8 | SSE | 10 | SSW | |
| Fort Dix | NJ | 2026-05-04 23:10 | USFS | 59 | 47 | 63 | 0.00 | 7 | S | 9 | SSW | |
| Fort Dix | NJ | 2026-05-05 01:25 | USFS | 59 | 50 | 74 | 0.00 | 3 | WSW | 12 | SSW | |
| Fort Dix | NJ | 2026-05-05 01:55 | USFS | 58 | 51 | 77 | 0.00 | 6 | SSW | 10 | SSW | |
| Fort Dix | NJ | 2026-05-05 01:50 | USFS | 58 | 51 | 76 | 0.00 | 3 | SSE | 10 | SSW | |
| Fort Dix | NJ | 2026-05-05 01:45 | USFS | 58 | 51 | 76 | 0.00 | 5 | S | 10 | SSW | |
| Fort Dix | NJ | 2026-05-05 01:40 | USFS | 58 | 51 | 76 | 0.00 | 9 | SSW | 12 | SSW | |
| Fort Dix | NJ | 2026-05-05 01:35 | USFS | 59 | 51 | 75 | 0.00 | 5 | SW | 10 | SW | |
| Fort Dix | NJ | 2026-05-05 01:30 | USFS | 59 | 51 | 75 | 0.00 | 6 | SSW | 10 | SSW | |
| Fort Dix | NJ | 2026-05-05 01:20 | USFS | 59 | 50 | 74 | 0.00 | 5 | SW | 12 | S | |
| Fort Dix | NJ | 2026-05-05 00:45 | USFS | 59 | 50 | 70 | 0.00 | 10 | S | 10 | S | |
| Fort Dix | NJ | 2026-05-05 01:15 | USFS | 58 | 50 | 74 | 0.00 | 5 | S | 13 | SSW | |
| Fort Dix | NJ | 2026-05-05 01:10 | USFS | 59 | 50 | 74 | 0.00 | 3 | SSE | 10 | SSW | |
| Fort Dix | NJ | 2026-05-05 01:05 | USFS | 59 | 50 | 73 | 0.00 | 8 | S | 10 | S | |
| Fort Dix | NJ | 2026-05-05 01:00 | USFS | 59 | 50 | 72 | 0.00 | 4 | WSW | 9 | S | |
| Fort Dix | NJ | 2026-05-05 00:55 | USFS | 59 | 50 | 71 | 0.00 | 6 | S | 10 | S | |
| Fort Dix | NJ | 2026-05-05 00:50 | USFS | 59 | 49 | 70 | 0.00 | 6 | SW | 11 | S | |
| Fort Dix | NJ | 2026-05-04 23:15 | USFS | 60 | 47 | 63 | 0.00 | 2 | SSW | 9 | SSW | |
| Fort Dix | NJ | 2026-05-04 23:05 | USFS | 59 | 47 | 63 | 0.00 | 4 | SW | 10 | SSE | |
| Fort Dix | NJ | 2026-05-05 02:05 | USFS | 58 | 51 | 76 | 0.00 | 4 | SSW | 10 | S | |
| Fort Dix | NJ | 2026-05-04 20:55 | USFS | 61 | 47 | 59 | 0.00 | 0 | ENE | 9 | SSW | |
| Fort Dix | NJ | 2026-05-04 21:25 | USFS | 61 | 47 | 60 | 0.00 | 5 | S | 12 | S | |
| Fort Dix | NJ | 2026-05-04 21:20 | USFS | 61 | 47 | 60 | 0.00 | 4 | SSW | 9 | S | |
| Fort Dix | NJ | 2026-05-04 21:15 | USFS | 61 | 47 | 60 | 0.00 | 7 | SSE | 11 | SSE | |
| Fort Dix | NJ | 2026-05-04 21:10 | USFS | 61 | 47 | 60 | 0.00 | 7 | S | 12 | S | |
| Fort Dix | NJ | 2026-05-04 21:05 | USFS | 61 | 47 | 60 | 0.00 | 6 | SSE | 10 | S | |
| Fort Dix | NJ | 2026-05-04 21:00 | USFS | 61 | 47 | 60 | 0.00 | 1 | W | 9 | S | |
| Fort Dix | NJ | 2026-05-04 20:50 | USFS | 61 | 46 | 58 | 0.00 | 1 | S | 10 | SSE | |
| Fort Dix | NJ | 2026-05-04 21:35 | USFS | 61 | 47 | 60 | 0.00 | 2 | S | 8 | S | |
| Fort Dix | NJ | 2026-05-04 20:45 | USFS | 61 | 46 | 57 | 0.00 | 11 | SSW | 11 | SSW | |
| Fort Dix | NJ | 2026-05-04 20:40 | USFS | 62 | 46 | 56 | 0.00 | 2 | S | 8 | SSW | |
| Fort Dix | NJ | 2026-05-04 20:35 | USFS | 62 | 46 | 55 | 0.00 | 3 | SSW | 12 | S | |
| Fort Dix | NJ | 2026-05-04 20:30 | USFS | 62 | 45 | 53 | 0.00 | 6 | S | 10 | S | |
| Fort Dix | NJ | 2026-05-04 20:25 | USFS | 63 | 45 | 52 | 0.00 | 2 | S | 9 | SE | |
| Fort Dix | NJ | 2026-05-04 20:20 | USFS | 63 | 45 | 51 | 0.00 | 8 | S | 10 | S | |
| Fort Dix | NJ | 2026-05-04 21:30 | USFS | 61 | 47 | 60 | 0.00 | 3 | S | 8 | S | |
| Fort Dix | NJ | 2026-05-04 21:40 | USFS | 61 | 47 | 60 | 0.00 | 6 | SW | 9 | S | |
| Fort Dix | NJ | 2026-05-04 23:00 | USFS | 59 | 47 | 63 | 0.00 | 5 | SSW | 10 | S | |
| Fort Dix | NJ | 2026-05-04 22:25 | USFS | 60 | 47 | 62 | 0.00 | 4 | SE | 10 | SSW | |
| Fort Dix | NJ | 2026-05-04 22:55 | USFS | 59 | 47 | 63 | 0.00 | 2 | W | 8 | S | |
| Fort Dix | NJ | 2026-05-04 22:50 | USFS | 59 | 47 | 63 | 0.00 | 2 | SSW | 8 | SSW | |
| Fort Dix | NJ | 2026-05-04 22:45 | USFS | 59 | 47 | 63 | 0.00 | 5 | S | 8 | S | |
| Fort Dix | NJ | 2026-05-04 22:40 | USFS | 60 | 47 | 62 | 0.00 | 3 | SSE | 10 | S | |
| Fort Dix | NJ | 2026-05-04 22:35 | USFS | 59 | 47 | 63 | 0.00 | 2 | S | 8 | S | |
| Fort Dix | NJ | 2026-05-04 22:30 | USFS | 60 | 47 | 62 | 0.00 | 3 | SSW | 9 | SSW | |
| Fort Dix | NJ | 2026-05-04 22:20 | USFS | 60 | 46 | 62 | 0.00 | 4 | SW | 7 | S | |
| Fort Dix | NJ | 2026-05-04 21:45 | USFS | 61 | 47 | 60 | 0.00 | 2 | S | 9 | S | |
| Fort Dix | NJ | 2026-05-04 22:15 | USFS | 60 | 47 | 62 | 0.00 | 7 | SSW | 8 | S | |
| Fort Dix | NJ | 2026-05-04 22:10 | USFS | 60 | 47 | 61 | 0.00 | 1 | SW | 9 | SSW | |
| Fort Dix | NJ | 2026-05-04 22:05 | USFS | 60 | 47 | 62 | 0.00 | 7 | SSE | 7 | S | |
| Fort Dix | NJ | 2026-05-04 22:00 | USFS | 60 | 47 | 61 | 0.00 | 4 | SSE | 8 | SSW | |
| Fort Dix | NJ | 2026-05-04 21:55 | USFS | 60 | 47 | 61 | 0.00 | 5 | SSE | 9 | S | |
| Fort Dix | NJ | 2026-05-04 21:50 | USFS | 60 | 47 | 60 | 0.00 | 4 | S | 8 | SSW | |
| Fort Dix | NJ | 2026-05-05 02:00 | USFS | 58 | 51 | 77 | 0.00 | 6 | S | 14 | SSW | |
| Fort Dix | NJ | 2026-05-05 02:10 | USFS | 58 | 51 | 77 | 0.00 | 6 | S | 13 | S | |
| Fort Dix | NJ | 2026-05-05 08:05 | USFS | 65 | 52 | 61 | 0.00 | 3 | WSW | 12 | W | |
| Fort Dix | NJ | 2026-05-05 06:00 | USFS | 61 | 53 | 75 | 0.00 | 2 | SSW | 11 | SW | |
| Fort Dix | NJ | 2026-05-05 06:30 | USFS | 61 | 52 | 72 | 0.00 | 1 | NW | 8 | SW | |
| Fort Dix | NJ | 2026-05-05 06:25 | USFS | 61 | 52 | 72 | 0.00 | 1 | SSW | 9 | S | |
| Fort Dix | NJ | 2026-05-05 06:20 | USFS | 61 | 52 | 71 | 0.00 | 5 | SW | 10 | SW | |
| Fort Dix | NJ | 2026-05-05 06:15 | USFS | 61 | 52 | 72 | 0.00 | 3 | SW | 9 | SW | |
| Fort Dix | NJ | 2026-05-05 06:10 | USFS | 61 | 52 | 73 | 0.00 | 5 | SSW | 11 | SSW | |
| Fort Dix | NJ | 2026-05-05 06:05 | USFS | 61 | 53 | 74 | 0.00 | 3 | SSW | 11 | W | |
| Fort Dix | NJ | 2026-05-05 05:55 | USFS | 61 | 53 | 75 | 0.00 | 3 | SSW | 11 | SSW | |
| Fort Dix | NJ | 2026-05-05 06:40 | USFS | 61 | 52 | 72 | 0.00 | 2 | SW | 6 | SSW | |
| Fort Dix | NJ | 2026-05-05 05:50 | USFS | 60 | 53 | 75 | 0.00 | 7 | SSW | 13 | S | |
| Fort Dix | NJ | 2026-05-05 05:45 | USFS | 60 | 53 | 76 | 0.00 | 6 | WSW | 11 | S | |
| Fort Dix | NJ | 2026-05-05 05:40 | USFS | 60 | 53 | 76 | 0.00 | 6 | S | 12 | S | |
| Fort Dix | NJ | 2026-05-05 05:35 | USFS | 60 | 53 | 77 | 0.00 | 4 | SSW | 10 | WSW | |
| Fort Dix | NJ | 2026-05-05 05:30 | USFS | 60 | 53 | 77 | 0.00 | 5 | SSW | 8 | SSW | |
| Fort Dix | NJ | 2026-05-05 05:25 | USFS | 60 | 53 | 77 | 0.00 | 3 | SSW | 10 | SSE | |
| Fort Dix | NJ | 2026-05-05 06:35 | USFS | 61 | 52 | 72 | 0.00 | 3 | SSW | 7 | W | |
| Fort Dix | NJ | 2026-05-05 06:45 | USFS | 61 | 52 | 73 | 0.00 | 4 | SW | 11 | SSW | |
| Fort Dix | NJ | 2026-05-05 05:15 | USFS | 59 | 53 | 78 | 0.00 | 5 | SSW | 12 | S | |
| Fort Dix | NJ | 2026-05-05 07:30 | USFS | 63 | 52 | 67 | 0.00 | 10 | SSW | 12 | SSW | |
| Fort Dix | NJ | 2026-05-05 08:00 | USFS | 65 | 52 | 63 | 0.00 | 5 | WSW | 11 | SW | |
| Fort Dix | NJ | 2026-05-05 07:55 | USFS | 65 | 52 | 64 | 0.00 | 3 | SW | 11 | SW | |
| Fort Dix | NJ | 2026-05-05 07:50 | USFS | 64 | 52 | 65 | 0.00 | 1 | WSW | 12 | WSW | |
| Fort Dix | NJ | 2026-05-05 07:45 | USFS | 64 | 52 | 65 | 0.00 | 9 | WSW | 12 | S | |
| Fort Dix | NJ | 2026-05-05 07:40 | USFS | 64 | 53 | 67 | 0.00 | 6 | SW | 13 | SW | |
| Fort Dix | NJ | 2026-05-05 07:35 | USFS | 64 | 52 | 66 | 0.00 | 7 | SSW | 13 | SW | |
| Fort Dix | NJ | 2026-05-05 07:25 | USFS | 63 | 53 | 68 | 0.00 | 5 | SW | 11 | SSW | |
| Fort Dix | NJ | 2026-05-05 06:50 | USFS | 61 | 52 | 73 | 0.00 | 1 | SW | 7 | SW | |
| Fort Dix | NJ | 2026-05-05 07:20 | USFS | 63 | 53 | 69 | 0.00 | 5 | SW | 8 | SSW | |
| Fort Dix | NJ | 2026-05-05 07:15 | USFS | 63 | 53 | 70 | 0.00 | 4 | SW | 10 | WSW | |
| Fort Dix | NJ | 2026-05-05 07:10 | USFS | 62 | 53 | 71 | 0.00 | 2 | WSW | 8 | WSW | |
| Fort Dix | NJ | 2026-05-05 07:05 | USFS | 62 | 53 | 71 | 0.00 | 3 | SSW | 9 | SSW | |
| Fort Dix | NJ | 2026-05-05 07:00 | USFS | 62 | 52 | 72 | 0.00 | 3 | SSW | 6 | SSW | |
| Fort Dix | NJ | 2026-05-05 06:55 | USFS | 62 | 52 | 72 | 0.00 | 2 | SW | 8 | SSW | |
| Fort Dix | NJ | 2026-05-05 05:20 | USFS | 60 | 53 | 77 | 0.00 | 2 | SW | 12 | SSW | |
| Fort Dix | NJ | 2026-05-05 05:10 | USFS | 59 | 52 | 79 | 0.00 | 5 | SSW | 7 | SW | |
| Fort Dix | NJ | 2026-05-05 02:15 | USFS | 58 | 51 | 77 | 0.00 | 7 | S | 9 | S | |
| Fort Dix | NJ | 2026-05-05 02:55 | USFS | 58 | 51 | 78 | 0.00 | 3 | SSW | 11 | SE | |
| Fort Dix | NJ | 2026-05-05 03:25 | USFS | 58 | 52 | 80 | 0.00 | 1 | SSW | 9 | S | |
| Fort Dix | NJ | 2026-05-05 03:20 | USFS | 57 | 52 | 81 | 0.00 | 3 | SSW | 9 | SW | |
| Fort Dix | NJ | 2026-05-05 03:15 | USFS | 57 | 51 | 81 | 0.00 | 2 | S | 8 | SSW | |
| Fort Dix | NJ | 2026-05-05 03:10 | USFS | 57 | 51 | 81 | 0.00 | 3 | S | 8 | S | |
| Fort Dix | NJ | 2026-05-05 03:05 | USFS | 57 | 51 | 80 | 0.00 | 1 | SSE | 9 | SSW | |
| Fort Dix | NJ | 2026-05-05 03:00 | USFS | 58 | 51 | 79 | 0.00 | 1 | SW | 12 | WSW | |
| Fort Dix | NJ | 2026-05-05 02:50 | USFS | 58 | 51 | 79 | 0.00 | 5 | S | 8 | S | |
| Fort Dix | NJ | 2026-05-05 03:35 | USFS | 58 | 51 | 80 | 0.00 | 5 | S | 11 | S | |
| Fort Dix | NJ | 2026-05-05 02:45 | USFS | 58 | 51 | 78 | 0.00 | 4 | SSW | 12 | SSW | |
| Fort Dix | NJ | 2026-05-05 02:40 | USFS | 58 | 51 | 78 | 0.00 | 3 | S | 10 | SSW | |
| Fort Dix | NJ | 2026-05-05 02:35 | USFS | 58 | 51 | 78 | 0.00 | 6 | S | 10 | S | |
| Fort Dix | NJ | 2026-05-05 02:30 | USFS | 58 | 51 | 78 | 0.00 | 4 | S | 9 | SSW | |
| Fort Dix | NJ | 2026-05-05 02:25 | USFS | 58 | 51 | 78 | 0.00 | 3 | SSW | 10 | S | |
| Fort Dix | NJ | 2026-05-05 02:20 | USFS | 58 | 51 | 77 | 0.00 | 4 | SSW | 12 | SW | |
| Fort Dix | NJ | 2026-05-05 03:30 | USFS | 58 | 52 | 79 | 0.00 | 2 | SW | 10 | S | |
| Fort Dix | NJ | 2026-05-05 03:40 | USFS | 58 | 52 | 80 | 0.00 | 1 | SSE | 9 | SW | |
| Fort Dix | NJ | 2026-05-05 05:05 | USFS | 59 | 52 | 78 | 0.00 | 2 | WSW | 14 | S | |
| Fort Dix | NJ | 2026-05-05 04:30 | USFS | 59 | 52 | 78 | 0.00 | 3 | SSW | 8 | SW | |
| Fort Dix | NJ | 2026-05-05 05:00 | USFS | 59 | 52 | 79 | 0.00 | 2 | SSW | 10 | SSW | |
| Fort Dix | NJ | 2026-05-05 04:55 | USFS | 59 | 52 | 78 | 0.00 | 3 | WSW | 10 | SSW | |
| Fort Dix | NJ | 2026-05-05 04:50 | USFS | 59 | 52 | 78 | 0.00 | 3 | WSW | 8 | SW | |
| Fort Dix | NJ | 2026-05-05 04:45 | USFS | 59 | 52 | 78 | 0.00 | 5 | SW | 9 | SSW | |
| Fort Dix | NJ | 2026-05-05 04:40 | USFS | 59 | 52 | 79 | 0.00 | 3 | SSW | 9 | SSW | |
| Fort Dix | NJ | 2026-05-05 04:35 | USFS | 59 | 52 | 79 | 0.00 | 2 | SSW | 8 | S | |
| Fort Dix | NJ | 2026-05-05 04:25 | USFS | 59 | 52 | 78 | 0.00 | 4 | SW | 9 | SSW | |
| Fort Dix | NJ | 2026-05-05 03:45 | USFS | 58 | 52 | 80 | 0.00 | 3 | SSW | 8 | SSW | |
| Fort Dix | NJ | 2026-05-05 04:20 | USFS | 59 | 52 | 78 | 0.00 | 0 | ESE | 7 | SSW | |
| Fort Dix | NJ | 2026-05-05 04:15 | USFS | 59 | 52 | 78 | 0.00 | 6 | SSW | 9 | SW | |
| Fort Dix | NJ | 2026-05-05 04:10 | USFS | 58 | 52 | 78 | 0.00 | 4 | SSW | 9 | SSW | |
| Fort Dix | NJ | 2026-05-05 04:05 | USFS | 58 | 52 | 79 | 0.00 | 4 | SW | 9 | SSW | |
| Fort Dix | NJ | 2026-05-05 04:00 | USFS | 58 | 52 | 79 | 0.00 | 3 | SW | 9 | SSW | |
| Fort Dix | NJ | 2026-05-05 03:55 | USFS | 58 | 52 | 80 | 0.00 | 2 | SSE | 11 | SSW | |
| Fort Dix | NJ | 2026-05-05 03:50 | USFS | 58 | 52 | 80 | 0.00 | 6 | SSW | 10 | SSW | |
| Fort Dix | NJ | 2026-05-05 20:10 | USFS | 70 | 51 | 51 | 0.00 | 5 | S | 16 | SSW |
data collection created in 0.055470943450928 (queried in 0.012223) rendered in: 0.00070691108703613

